KAXV/AXV METAR and TAF weather

Enter ICAO airport designator
Station Type Date Time Source
KAXV METAR 2020/07/13 14:35 UTC NOAA

KAXV 131435Z AUTO 00000KT 7SM BKN055 22/18 A2997 RMK AO2


Station Type Date Time Source
KAXV Decoded METAR 2020/07/13 14:35 UTC NOAA

Station name not available
Jul 13, 2020 - 10:35 AM EDT / 2020.07.13 1435 UTC
Wind: Calm:0
Visibility: 7 mile(s):0
Sky conditions: mostly cloudy
Temperature: 71 F (22 C)
Dew Point: 64 F (18 C)
Relative Humidity: 78%
Pressure (altimeter): 29.97 in. Hg (1014 hPa)
ob: KAXV 131435Z AUTO 00000KT 7SM BKN055 22/18 A2997 RMK AO2
cycle: 14

Station Type Date Time Source
KAXV TAF UTC NOAA

Error!

Example: see airport list